Time;durP1;ratioP1;P1;durP2;ratioP2;P2;SDS_P1;SDS_P2;PMS_P1;PMS_P2;Temp;Humidity;BMP_temperature;BMP_pressure;BME280_temperature;BME280_humidity;BME280_pressure;Samples;Min_cycle;Max_cycle;Signal;HPM_P1;HPM_P2
2022/10/25 00:02:03;;;;;;;;;;;;;;;12.03;100.00;97923.91;7386263;19;19918;-53
2022/10/25 00:04:36;;;;;;;;;;;;;;;12.37;100.00;97924.06;7379427;19;20259;-53
2022/10/25 00:07:10;;;;;;;;;;;;;;;12.23;100.00;97926.84;7387769;19;19915;-51
2022/10/25 00:09:43;;;;;;;;;;;;;;;12.59;100.00;97929.47;7385410;19;19988;-59
2022/10/25 00:15:16;;;;;;;;;;;;;;;12.42;100.00;97932.47;7364151;19;52252;-55
2022/10/25 00:17:49;;;;;;;;;;;;;;;12.40;100.00;97929.13;7389479;19;19922;-49
2022/10/25 00:20:23;;;;;;;;;;;;;;;12.35;100.00;97935.69;7391080;19;19915;-49
2022/10/25 00:22:57;;;;;;;;;;;;;;;12.37;100.00;97934.59;7388860;19;19915;-50
2022/10/25 00:25:30;;;;;;;;;;;;;;;12.11;100.00;97940.00;7389919;19;19940;-49
2022/10/25 00:28:03;;;;;;;;;;;;;;;12.17;100.00;97940.44;7385007;19;19914;-49
2022/10/25 00:30:39;;;;;;;;;;;;;;;12.24;100.00;97944.34;7386843;19;19942;-53
2022/10/25 00:33:13;;;;;;;;;;;;;;;12.21;100.00;97943.69;7388309;19;19921;-49
2022/10/25 00:35:46;;;;;;;;;;;;;;;12.17;100.00;97948.34;7387949;19;19919;-48
2022/10/25 00:38:20;;;;;;;;;;;;;;;12.17;100.00;97934.31;7388275;19;19921;-51
2022/10/25 00:40:54;;;;;;;;;;;;;;;12.47;100.00;97937.44;7382429;19;19923;-51
2022/10/25 00:43:39;;;;;;;;;;;;;;;12.44;100.00;97935.84;7385766;19;19911;-50
2022/10/25 00:46:19;;;;;;;;;;;;;;;12.08;100.00;97935.78;7383266;19;20269;-60
2022/10/25 00:48:57;;;;;;;;;;;;;;;11.96;100.00;97941.09;7387054;19;19919;-50
2022/10/25 00:51:34;;;;;;;;;;;;;;;11.97;100.00;97935.72;7385475;19;19925;-59
2022/10/25 00:54:07;;;;;;;;;;;;;;;12.06;100.00;97937.72;7386600;19;20382;-49
2022/10/25 00:56:44;;;;;;;;;;;;;;;12.17;100.00;97936.94;7388239;19;19982;-49
2022/10/25 00:59:21;;;;;;;;;;;;;;;12.21;100.00;97934.00;7390009;19;19936;-50
2022/10/25 01:02:01;;;;;;;;;;;;;;;12.42;100.00;97929.84;7384496;19;19915;-49
2022/10/25 01:04:37;;;;;;;;;;;;;;;12.40;100.00;97923.00;7384212;19;19943;-50
2022/10/25 01:07:10;;;;;;;;;;;;;;;12.07;100.00;97933.25;7389098;19;19915;-48
2022/10/25 01:09:50;;;;;;;;;;;;;;;11.94;100.00;97935.91;7384036;19;19911;-60
2022/10/25 01:12:23;;;;;;;;;;;;;;;12.03;100.00;97940.56;7387174;19;20387;-49
2022/10/25 01:14:58;;;;;;;;;;;;;;;11.95;100.00;97940.25;7389071;19;19923;-51
2022/10/25 01:17:39;;;;;;;;;;;;;;;11.99;100.00;97932.97;7386601;19;19919;-49
2022/10/25 01:20:28;;;;;;;;;;;;;;;12.33;100.00;97927.88;7387513;19;20343;-49
2022/10/25 01:23:06;;;;;;;;;;;;;;;11.83;100.00;97927.91;7388767;19;19919;-53
2022/10/25 01:25:57;;;;;;;;;;;;;;;11.84;100.00;97916.44;7388223;19;19928;-58
2022/10/25 01:28:41;;;;;;;;;;;;;;;11.86;100.00;97925.06;7385692;19;19914;-54
2022/10/25 01:31:25;;;;;;;;;;;;;;;12.12;100.00;97931.16;7379203;19;19975;-50
2022/10/25 01:34:01;;;;;;;;;;;;;;;12.18;100.00;97926.28;7387356;19;19914;-49
2022/10/25 01:36:42;;;;;;;;;;;;;;;11.98;100.00;97926.84;7381264;19;19919;-50
2022/10/25 01:39:19;;;;;;;;;;;;;;;12.14;100.00;97922.19;7388624;19;19925;-49
2022/10/25 01:41:59;;;;;;;;;;;;;;;12.20;100.00;97913.00;7382470;19;19915;-51
2022/10/25 01:44:38;;;;;;;;;;;;;;;11.83;100.00;97922.66;7387142;19;19927;-51
2022/10/25 01:47:17;;;;;;;;;;;;;;;11.86;100.00;97916.34;7381200;19;19919;-51
2022/10/25 01:49:53;;;;;;;;;;;;;;;11.86;100.00;97921.63;7387492;19;19922;-49
2022/10/25 01:52:27;;;;;;;;;;;;;;;11.75;100.00;97919.72;7385360;19;20316;-60
2022/10/25 01:55:01;;;;;;;;;;;;;;;11.53;100.00;97919.50;7387183;19;19919;-50
2022/10/25 01:57:44;;;;;;;;;;;;;;;11.68;100.00;97918.44;7388279;19;20265;-49
2022/10/25 02:00:22;;;;;;;;;;;;;;;11.78;100.00;97924.78;7388194;19;20355;-49
2022/10/25 02:03:04;;;;;;;;;;;;;;;11.90;100.00;97917.81;7384694;19;20323;-50
2022/10/25 02:05:44;;;;;;;;;;;;;;;11.50;100.00;97922.34;7388638;19;19921;-49
2022/10/25 02:08:23;;;;;;;;;;;;;;;11.55;100.00;97923.72;7385254;19;19915;-53
2022/10/25 02:10:59;;;;;;;;;;;;;;;11.56;100.00;97921.94;7386180;19;19923;-51
2022/10/25 02:13:34;;;;;;;;;;;;;;;11.68;100.00;97919.31;7386839;19;19915;-50
2022/10/25 02:16:10;;;;;;;;;;;;;;;11.55;100.00;97915.00;7379723;19;20438;-49
2022/10/25 02:18:52;;;;;;;;;;;;;;;11.43;100.00;97923.72;7383799;19;19910;-49
2022/10/25 02:21:30;;;;;;;;;;;;;;;11.39;100.00;97927.50;7380141;19;20263;-48
2022/10/25 02:24:04;;;;;;;;;;;;;;;11.33;100.00;97927.94;7385056;19;19923;-51
2022/10/25 02:26:42;;;;;;;;;;;;;;;11.59;100.00;97932.25;7384923;19;19910;-60
2022/10/25 02:29:17;;;;;;;;;;;;;;;11.50;100.00;97943.41;7393950;19;19923;-49
2022/10/25 02:31:50;;;;;;;;;;;;;;;11.48;100.00;97940.91;7395108;19;19918;-48
2022/10/25 02:34:27;;;;;;;;;;;;;;;11.44;100.00;97925.41;7389307;19;19915;-50
2022/10/25 02:37:00;;;;;;;;;;;;;;;11.47;100.00;97935.75;7390973;19;19915;-48
2022/10/25 02:39:37;;;;;;;;;;;;;;;11.41;100.00;97926.47;7389373;19;19910;-49
2022/10/25 02:42:11;;;;;;;;;;;;;;;11.59;100.00;97929.63;7391955;19;19925;-49
2022/10/25 02:44:44;;;;;;;;;;;;;;;11.28;100.00;97932.63;7392004;19;19970;-52
2022/10/25 02:47:17;;;;;;;;;;;;;;;11.71;100.00;97923.50;7393658;19;20966;-52
2022/10/25 02:49:53;;;;;;;;;;;;;;;11.41;100.00;97928.25;7392164;19;20320;-52
2022/10/25 02:52:27;;;;;;;;;;;;;;;11.75;100.00;97927.59;7387827;19;19931;-49
2022/10/25 02:55:00;;;;;;;;;;;;;;;11.65;100.00;97923.94;7392576;19;19975;-50
2022/10/25 02:57:38;;;;;;;;;;;;;;;11.54;100.00;97924.66;7393556;19;19919;-49
2022/10/25 03:00:15;;;;;;;;;;;;;;;11.36;100.00;97922.47;7392245;19;19966;-51
2022/10/25 03:02:48;;;;;;;;;;;;;;;11.25;100.00;97915.28;7387781;19;20304;-50
2022/10/25 03:05:25;;;;;;;;;;;;;;;11.46;100.00;97923.50;7381589;19;19919;-51
2022/10/25 03:08:00;;;;;;;;;;;;;;;11.29;100.00;97921.19;7388957;19;19911;-51
2022/10/25 03:10:33;;;;;;;;;;;;;;;11.37;100.00;97914.47;7382642;19;19927;-55
2022/10/25 03:13:06;;;;;;;;;;;;;;;11.81;100.00;97913.16;7389131;19;19925;-49
2022/10/25 03:15:40;;;;;;;;;;;;;;;11.33;100.00;97917.41;7387811;19;19978;-52
2022/10/25 03:18:13;;;;;;;;;;;;;;;10.91;100.00;97930.75;7383983;19;19921;-53
2022/10/25 03:20:50;;;;;;;;;;;;;;;11.42;100.00;97920.25;7390018;19;19934;-51
2022/10/25 03:23:24;;;;;;;;;;;;;;;11.46;100.00;97920.88;7383019;19;19922;-59
2022/10/25 03:25:57;;;;;;;;;;;;;;;11.32;100.00;97916.53;7389793;19;19990;-52
2022/10/25 03:28:34;;;;;;;;;;;;;;;11.52;100.00;97917.81;7386121;19;19919;-55
2022/10/25 03:31:08;;;;;;;;;;;;;;;11.24;100.00;97912.75;7385995;19;19925;-54
2022/10/25 03:33:41;;;;;;;;;;;;;;;11.27;100.00;97918.66;7390429;19;19914;-51
2022/10/25 03:36:18;;;;;;;;;;;;;;;10.89;100.00;97924.75;7382286;19;20444;-50
2022/10/25 03:38:52;;;;;;;;;;;;;;;10.95;100.00;97924.34;7384228;19;19923;-50
2022/10/25 03:41:25;;;;;;;;;;;;;;;11.29;100.00;97919.38;7385897;19;20244;-57
2022/10/25 03:43:59;;;;;;;;;;;;;;;11.02;100.00;97925.63;7389131;19;19919;-53
2022/10/25 03:46:32;;;;;;;;;;;;;;;10.91;100.00;97934.22;7389327;19;19948;-50
2022/10/25 03:49:06;;;;;;;;;;;;;;;11.09;100.00;97919.03;7383434;19;20452;-50
2022/10/25 03:51:42;;;;;;;;;;;;;;;10.67;100.00;97933.22;7388647;19;19922;-52
2022/10/25 03:54:16;;;;;;;;;;;;;;;11.11;100.00;97930.31;7386404;19;20255;-50
2022/10/25 03:56:49;;;;;;;;;;;;;;;11.16;100.00;97926.44;7387788;19;19915;-55
2022/10/25 03:59:23;;;;;;;;;;;;;;;11.23;100.00;97924.22;7389129;19;19911;-51
2022/10/25 04:01:56;;;;;;;;;;;;;;;11.12;100.00;97927.59;7385480;19;19942;-50
2022/10/25 04:04:29;;;;;;;;;;;;;;;11.33;100.00;97928.75;7388701;19;20362;-51
2022/10/25 04:07:05;;;;;;;;;;;;;;;11.13;100.00;97934.53;7388743;19;19938;-51
2022/10/25 04:09:39;;;;;;;;;;;;;;;10.98;100.00;97932.91;7387268;19;19918;-53
2022/10/25 04:12:15;;;;;;;;;;;;;;;11.04;100.00;97932.50;7388855;19;19919;-53
2022/10/25 04:14:50;;;;;;;;;;;;;;;11.00;100.00;97940.72;7384305;19;19915;-50
2022/10/25 04:17:23;;;;;;;;;;;;;;;11.29;100.00;97942.25;7378699;19;19985;-51
2022/10/25 04:19:58;;;;;;;;;;;;;;;11.38;100.00;97942.47;7384069;19;19907;-59
2022/10/25 04:22:44;;;;;;;;;;;;;;;11.10;100.00;97939.16;7385024;19;19926;-49
2022/10/25 04:25:17;;;;;;;;;;;;;;;10.96;100.00;97939.19;7384197;19;19914;-59
2022/10/25 04:27:51;;;;;;;;;;;;;;;11.30;100.00;97947.41;7384401;19;20268;-53
2022/10/25 04:30:24;;;;;;;;;;;;;;;11.17;100.00;97945.72;7385633;19;19915;-50
2022/10/25 04:32:58;;;;;;;;;;;;;;;11.24;100.00;97944.31;7381716;19;19923;-49
2022/10/25 04:35:31;;;;;;;;;;;;;;;10.89;100.00;97954.53;7385571;19;20426;-51
2022/10/25 04:38:11;;;;;;;;;;;;;;;11.47;100.00;97946.28;7382497;19;20284;-59
2022/10/25 04:40:44;;;;;;;;;;;;;;;11.18;100.00;97948.22;7383063;19;19933;-52
2022/10/25 04:43:17;;;;;;;;;;;;;;;11.19;100.00;97949.06;7385381;19;19915;-49
2022/10/25 04:45:51;;;;;;;;;;;;;;;10.95;100.00;97942.78;7379833;19;19918;-50
2022/10/25 04:48:24;;;;;;;;;;;;;;;11.24;100.00;97949.59;7383430;19;19915;-54
2022/10/25 04:50:58;;;;;;;;;;;;;;;10.93;100.00;97947.28;7384370;19;19915;-59
2022/10/25 04:53:34;;;;;;;;;;;;;;;11.22;100.00;97949.69;7387232;19;19915;-52
2022/10/25 04:56:08;;;;;;;;;;;;;;;11.07;100.00;97947.25;7371860;19;19918;-50
2022/10/25 04:58:42;;;;;;;;;;;;;;;11.25;100.00;97948.66;7374834;19;19918;-53
2022/10/25 05:01:17;;;;;;;;;;;;;;;10.97;100.00;97947.00;7382249;19;19917;-54
2022/10/25 05:03:51;;;;;;;;;;;;;;;10.83;100.00;97940.94;7380439;19;20327;-57
2022/10/25 05:06:26;;;;;;;;;;;;;;;10.63;100.00;97949.28;7383383;19;19942;-57
2022/10/25 05:09:03;;;;;;;;;;;;;;;10.64;100.00;97958.84;7381528;19;19918;-50
2022/10/25 05:11:36;;;;;;;;;;;;;;;10.81;100.00;97951.53;7380358;19;19910;-49
2022/10/25 05:14:10;;;;;;;;;;;;;;;11.01;100.00;97958.16;7381254;19;20363;-57
2022/10/25 05:16:43;;;;;;;;;;;;;;;10.81;100.00;97966.50;7373625;19;19982;-59
2022/10/25 05:19:19;;;;;;;;;;;;;;;10.85;100.00;97958.28;7383915;19;19919;-53
2022/10/25 05:21:55;;;;;;;;;;;;;;;10.75;100.00;97969.53;7384365;19;19985;-49
2022/10/25 05:24:31;;;;;;;;;;;;;;;10.63;100.00;97968.50;7382919;19;20199;-52
2022/10/25 05:27:05;;;;;;;;;;;;;;;10.65;100.00;97965.78;7385312;19;19974;-49
2022/10/25 05:29:38;;;;;;;;;;;;;;;10.82;100.00;97960.28;7381141;19;19919;-50
2022/10/25 05:32:11;;;;;;;;;;;;;;;10.72;100.00;97967.94;7382764;19;19918;-54
2022/10/25 05:34:45;;;;;;;;;;;;;;;10.82;100.00;97961.16;7383030;19;19925;-52
2022/10/25 05:37:22;;;;;;;;;;;;;;;10.62;100.00;97966.00;7383110;19;20255;-55
2022/10/25 05:39:59;;;;;;;;;;;;;;;11.08;100.00;97957.69;7383781;19;19919;-50
2022/10/25 05:42:33;;;;;;;;;;;;;;;10.70;100.00;97967.19;7381500;19;20280;-53
2022/10/25 05:45:07;;;;;;;;;;;;;;;10.70;100.00;97968.97;7384142;19;20221;-53
2022/10/25 05:47:40;;;;;;;;;;;;;;;10.92;100.00;97982.44;7380840;19;19906;-61
2022/10/25 05:50:14;;;;;;;;;;;;;;;11.06;100.00;97977.16;7381789;19;20331;-56
2022/10/25 05:52:48;;;;;;;;;;;;;;;10.82;100.00;97984.81;7382721;19;19923;-51
2022/10/25 05:55:25;;;;;;;;;;;;;;;10.27;100.00;97989.25;7377451;19;19919;-51
2022/10/25 05:57:58;;;;;;;;;;;;;;;10.05;100.00;98006.44;7379773;19;19926;-49
2022/10/25 06:00:31;;;;;;;;;;;;;;;10.39;100.00;98000.78;7379182;19;19919;-59
2022/10/25 06:03:06;;;;;;;;;;;;;;;10.66;100.00;98012.19;7390511;19;19919;-50
2022/10/25 06:05:39;;;;;;;;;;;;;;;10.70;100.00;98013.69;7390832;19;19922;-52
2022/10/25 06:08:13;;;;;;;;;;;;;;;10.47;100.00;98009.03;7384890;19;20327;-49
2022/10/25 06:10:49;;;;;;;;;;;;;;;10.99;100.00;98013.53;7392436;19;19915;-50
2022/10/25 06:13:23;;;;;;;;;;;;;;;11.25;100.00;98014.47;7385268;19;20546;-61
2022/10/25 06:15:56;;;;;;;;;;;;;;;11.46;100.00;98028.81;7386906;19;19919;-58
2022/10/25 06:18:30;;;;;;;;;;;;;;;11.61;100.00;98022.53;7387733;19;19915;-49
2022/10/25 06:21:06;;;;;;;;;;;;;;;11.52;100.00;98021.38;7386355;19;19991;-50
2022/10/25 06:23:40;;;;;;;;;;;;;;;11.68;100.00;98032.56;7389687;19;19918;-57
2022/10/25 06:26:17;;;;;;;;;;;;;;;11.47;100.00;98025.28;7385929;19;20323;-53
2022/10/25 06:28:54;;;;;;;;;;;;;;;11.58;100.00;98022.75;7389867;19;19907;-50
2022/10/25 06:31:28;;;;;;;;;;;;;;;11.54;100.00;98014.22;7391183;19;19914;-59
2022/10/25 06:34:02;;;;;;;;;;;;;;;11.73;100.00;98021.72;7389513;19;20709;-51
2022/10/25 06:36:35;;;;;;;;;;;;;;;11.49;100.00;98029.47;7388234;19;19927;-49
2022/10/25 06:39:08;;;;;;;;;;;;;;;11.82;100.00;98025.53;7385193;19;19931;-50
2022/10/25 06:41:44;;;;;;;;;;;;;;;11.81;100.00;98022.03;7390909;19;19915;-54
2022/10/25 06:44:19;;;;;;;;;;;;;;;11.54;100.00;98030.00;7389651;19;19936;-55
2022/10/25 06:46:53;;;;;;;;;;;;;;;11.43;100.00;98026.41;7393233;19;19915;-51
2022/10/25 06:49:29;;;;;;;;;;;;;;;11.98;100.00;98021.72;7392916;19;20345;-49
2022/10/25 06:52:03;;;;;;;;;;;;;;;11.83;100.00;98028.03;7387696;19;19919;-57
2022/10/25 06:54:36;;;;;;;;;;;;;;;11.70;100.00;98016.66;7389523;19;20353;-49
2022/10/25 06:57:12;;;;;;;;;;;;;;;11.86;100.00;98017.28;7387528;19;19948;-59
2022/10/25 06:59:47;;;;;;;;;;;;;;;11.62;100.00;98008.44;7388390;19;20026;-49
2022/10/25 07:02:20;;;;;;;;;;;;;;;11.83;100.00;98016.69;7386351;19;20359;-54
2022/10/25 07:04:53;;;;;;;;;;;;;;;11.60;100.00;98016.44;7387090;19;19907;-52
2022/10/25 07:07:27;;;;;;;;;;;;;;;11.99;100.00;98017.31;7387323;19;19986;-49
2022/10/25 07:10:01;;;;;;;;;;;;;;;12.18;100.00;98018.56;7382277;19;20726;-58
2022/10/25 07:12:37;;;;;;;;;;;;;;;11.95;100.00;98029.00;7388984;19;19918;-53
2022/10/25 07:15:11;;;;;;;;;;;;;;;12.04;100.00;98034.47;7387367;19;20440;-52
2022/10/25 07:17:44;;;;;;;;;;;;;;;11.68;100.00;98038.78;7383034;19;19926;-51
2022/10/25 07:20:18;;;;;;;;;;;;;;;12.05;100.00;98030.06;7385531;19;20240;-49
2022/10/25 07:22:51;;;;;;;;;;;;;;;11.86;100.00;98038.38;7383922;19;20324;-60
2022/10/25 07:25:24;;;;;;;;;;;;;;;12.16;100.00;98041.53;7387791;19;20235;-54
2022/10/25 07:28:01;;;;;;;;;;;;;;;12.31;100.00;98042.31;7388155;19;21401;-50
2022/10/25 07:30:35;;;;;;;;;;;;;;;12.26;100.00;98053.19;7387173;19;19921;-49
2022/10/25 07:33:12;;;;;;;;;;;;;;;12.38;100.00;98056.78;7390931;19;19921;-53
2022/10/25 07:35:45;;;;;;;;;;;;;;;12.41;100.00;98059.19;7385647;19;19918;-48
2022/10/25 07:38:18;;;;;;;;;;;;;;;12.54;100.00;98058.22;7388602;19;19927;-53
2022/10/25 07:40:53;;;;;;;;;;;;;;;12.83;100.00;98059.66;7386197;19;19918;-52
2022/10/25 07:43:31;;;;;;;;;;;;;;;12.93;100.00;98063.28;7388371;19;20165;-52
2022/10/25 07:46:07;;;;;;;;;;;;;;;13.09;100.00;98055.09;7384987;19;20267;-51
2022/10/25 07:48:41;;;;;;;;;;;;;;;13.17;100.00;98050.97;7379629;19;19915;-49
2022/10/25 07:51:16;;;;;;;;;;;;;;;13.17;100.00;98053.59;7388845;19;20395;-50
2022/10/25 07:53:49;;;;;;;;;;;;;;;12.96;100.00;98054.31;7380129;19;19931;-57
2022/10/25 07:56:24;;;;;;;;;;;;;;;13.08;100.00;98046.34;7390093;19;19918;-48
2022/10/25 07:59:00;;;;;;;;;;;;;;;13.15;100.00;98055.50;7383102;19;19934;-50
2022/10/25 08:01:35;;;;;;;;;;;;;;;12.89;100.00;98053.91;7382954;19;19941;-53
2022/10/25 08:04:08;;;;;;;;;;;;;;;13.14;100.00;98061.75;7385298;19;19967;-53
2022/10/25 08:06:41;;;;;;;;;;;;;;;12.82;100.00;98054.47;7381034;19;20340;-59
2022/10/25 08:09:17;;;;;;;;;;;;;;;12.67;100.00;98059.03;7385832;19;20265;-48
2022/10/25 08:11:50;;;;;;;;;;;;;;;13.03;100.00;98051.13;7388108;19;20281;-52
2022/10/25 08:14:26;;;;;;;;;;;;;;;12.37;100.00;98069.09;7384596;19;19919;-48
2022/10/25 08:16:59;;;;;;;;;;;;;;;12.61;100.00;98059.47;7387662;19;19950;-54
2022/10/25 08:19:33;;;;;;;;;;;;;;;12.26;100.00;98062.88;7380140;19;19925;-60
2022/10/25 08:22:06;;;;;;;;;;;;;;;11.99;100.00;98068.22;7386340;19;19910;-51
2022/10/25 08:24:40;;;;;;;;;;;;;;;12.13;100.00;98069.91;7384904;19;19921;-51
2022/10/25 08:27:14;;;;;;;;;;;;;;;12.18;100.00;98065.16;7382384;19;19940;-49
2022/10/25 08:29:51;;;;;;;;;;;;;;;12.30;100.00;98067.00;7387672;19;19907;-49
2022/10/25 08:32:25;;;;;;;;;;;;;;;12.37;100.00;98073.50;7379890;19;19911;-58
2022/10/25 08:34:58;;;;;;;;;;;;;;;12.19;100.00;98075.59;7382615;19;19911;-49
2022/10/25 08:37:31;;;;;;;;;;;;;;;12.14;100.00;98067.19;7385362;19;19919;-49
2022/10/25 08:40:04;;;;;;;;;;;;;;;12.37;100.00;98069.09;7383701;19;20246;-56
2022/10/25 08:42:40;;;;;;;;;;;;;;;12.24;100.00;98068.28;7386443;19;19930;-48
2022/10/25 08:45:22;;;;;;;;;;;;;;;12.33;100.00;98064.13;7380740;19;19971;-58
2022/10/25 08:47:59;;;;;;;;;;;;;;;12.27;100.00;98064.59;7383624;19;19914;-49
2022/10/25 08:50:36;;;;;;;;;;;;;;;12.11;100.00;98070.03;7384612;19;19915;-56
2022/10/25 08:53:12;;;;;;;;;;;;;;;12.26;100.00;98074.28;7386315;19;20260;-49
2022/10/25 08:55:47;;;;;;;;;;;;;;;12.41;100.00;98070.56;7387505;19;19911;-50
2022/10/25 08:58:23;;;;;;;;;;;;;;;12.64;100.00;98075.06;7384118;19;19934;-51
2022/10/25 09:00:59;;;;;;;;;;;;;;;12.35;100.00;98078.06;7386874;19;19918;-48
2022/10/25 09:03:33;;;;;;;;;;;;;;;12.54;100.00;98071.41;7381324;19;19919;-50
2022/10/25 09:06:15;;;;;;;;;;;;;;;12.14;100.00;98080.34;7383908;19;19938;-53
2022/10/25 09:08:56;;;;;;;;;;;;;;;12.40;100.00;98084.72;7379879;19;19915;-49
2022/10/25 09:11:36;;;;;;;;;;;;;;;12.38;100.00;98086.59;7387293;19;19923;-52
2022/10/25 09:14:11;;;;;;;;;;;;;;;12.30;100.00;98075.75;7380259;19;19990;-48
2022/10/25 09:16:55;;;;;;;;;;;;;;;12.30;100.00;98075.75;7383161;19;20332;-48
2022/10/25 09:19:32;;;;;;;;;;;;;;;12.53;100.00;98082.88;7381216;19;20646;-48
2022/10/25 09:22:07;;;;;;;;;;;;;;;12.77;100.00;98085.59;7386601;19;19914;-52
2022/10/25 09:24:46;;;;;;;;;;;;;;;12.80;100.00;98080.97;7385938;19;19919;-57
2022/10/25 09:27:27;;;;;;;;;;;;;;;12.52;100.00;98086.50;7384714;19;19914;-53
2022/10/25 09:30:05;;;;;;;;;;;;;;;12.22;100.00;98083.34;7386274;19;19918;-60
2022/10/25 09:32:42;;;;;;;;;;;;;;;12.41;100.00;98089.03;7386913;19;19918;-51
2022/10/25 09:35:21;;;;;;;;;;;;;;;12.48;100.00;98085.03;7384485;19;20339;-48
2022/10/25 09:37:55;;;;;;;;;;;;;;;12.51;100.00;98081.31;7385521;19;19922;-49
2022/10/25 09:40:31;;;;;;;;;;;;;;;12.29;100.00;98083.75;7387689;19;19915;-49
2022/10/25 09:43:10;;;;;;;;;;;;;;;12.76;100.00;98083.94;7381634;19;20531;-50
2022/10/25 09:45:48;;;;;;;;;;;;;;;12.69;100.00;98088.81;7387176;19;19963;-52
2022/10/25 09:48:28;;;;;;;;;;;;;;;12.78;100.00;98084.69;7382296;19;20353;-52
2022/10/25 09:51:07;;;;;;;;;;;;;;;12.75;100.00;98090.16;7385589;19;19915;-48
2022/10/25 09:53:43;;;;;;;;;;;;;;;13.02;100.00;98080.25;7381326;19;19931;-50
2022/10/25 09:56:17;;;;;;;;;;;;;;;12.43;100.00;98084.50;7388708;19;19943;-49
2022/10/25 09:58:51;;;;;;;;;;;;;;;12.37;100.00;98079.66;7386324;19;19991;-54
2022/10/25 10:01:27;;;;;;;;;;;;;;;12.47;100.00;98085.13;7386947;19;19925;-53
2022/10/25 10:04:25;;;;;;;;;;;;;;;12.80;100.00;98080.97;7386901;19;19917;-55
2022/10/25 10:07:02;;;;;;;;;;;;;;;12.55;100.00;98077.50;7386871;19;19915;-51
2022/10/25 10:09:37;;;;;;;;;;;;;;;12.85;100.00;98081.47;7384601;19;19914;-52
2022/10/25 10:12:11;;;;;;;;;;;;;;;12.62;100.00;98077.00;7387025;19;19911;-49
2022/10/25 10:14:47;;;;;;;;;;;;;;;12.80;100.00;98074.84;7386354;19;20243;-53
2022/10/25 10:17:23;;;;;;;;;;;;;;;13.12;100.00;98076.03;7379573;19;19946;-50
2022/10/25 10:20:12;;;;;;;;;;;;;;;12.98;100.00;98078.81;7383805;19;19911;-54
2022/10/25 10:22:54;;;;;;;;;;;;;;;13.12;100.00;98076.84;7383165;19;19929;-53
2022/10/25 10:25:30;;;;;;;;;;;;;;;13.32;100.00;98075.41;7382565;19;19914;-50
2022/10/25 10:28:05;;;;;;;;;;;;;;;13.32;100.00;98073.63;7383176;19;19918;-53
2022/10/25 10:30:39;;;;;;;;;;;;;;;13.04;100.00;98079.19;7386402;19;19919;-49
2022/10/25 10:33:22;;;;;;;;;;;;;;;12.79;100.00;98073.97;7380999;19;19915;-56
2022/10/25 10:35:59;;;;;;;;;;;;;;;12.80;100.00;98078.31;7386000;19;19974;-53
2022/10/25 10:38:35;;;;;;;;;;;;;;;13.22;100.00;98066.47;7379936;19;19946;-59
2022/10/25 10:41:19;;;;;;;;;;;;;;;12.98;100.00;98073.53;7385853;19;19917;-48
2022/10/25 10:43:52;;;;;;;;;;;;;;;12.57;100.00;98076.47;7381227;19;19919;-54
2022/10/25 10:46:25;;;;;;;;;;;;;;;12.96;100.00;98073.63;7386036;19;19935;-53
2022/10/25 10:49:00;;;;;;;;;;;;;;;12.77;100.00;98070.63;7391291;19;20355;-51
2022/10/25 10:51:41;;;;;;;;;;;;;;;13.14;100.00;98072.31;7387259;19;19907;-54
2022/10/25 10:54:26;;;;;;;;;;;;;;;13.33;100.00;98069.19;7390756;19;19923;-52
2022/10/25 10:57:02;;;;;;;;;;;;;;;13.02;100.00;98082.91;7391967;19;19931;-51
2022/10/25 10:59:38;;;;;;;;;;;;;;;12.86;100.00;98082.31;7390693;19;20328;-49
2022/10/25 11:02:28;;;;;;;;;;;;;;;12.72;100.00;98088.59;7387133;19;19924;-50
2022/10/25 11:05:02;;;;;;;;;;;;;;;12.93;100.00;98086.22;7391555;19;20224;-53
2022/10/25 11:07:36;;;;;;;;;;;;;;;12.51;100.00;98084.81;7386677;19;19911;-53
2022/10/25 11:10:23;;;;;;;;;;;;;;;12.82;100.00;98076.41;7392484;19;19907;-50
2022/10/25 11:13:16;;;;;;;;;;;;;;;12.98;100.00;98070.88;7385707;19;19918;-52
2022/10/25 11:16:06;;;;;;;;;;;;;;;13.26;100.00;98070.59;7388661;19;19919;-51
2022/10/25 11:18:45;;;;;;;;;;;;;;;12.98;100.00;98070.88;7389268;19;19915;-49
2022/10/25 11:21:22;;;;;;;;;;;;;;;12.91;100.00;98074.91;7385572;19;19994;-58
2022/10/25 11:24:03;;;;;;;;;;;;;;;13.13;100.00;98075.06;7390250;19;19927;-50
2022/10/25 11:26:54;;;;;;;;;;;;;;;13.48;100.00;98071.53;7389680;19;19930;-58
2022/10/25 11:29:47;;;;;;;;;;;;;;;13.76;100.00;98068.53;7392090;19;19951;-48
2022/10/25 11:32:34;;;;;;;;;;;;;;;13.20;100.00;98078.94;7391334;19;19922;-50
2022/10/25 11:35:11;;;;;;;;;;;;;;;13.59;100.00;98086.63;7386847;19;19915;-58
2022/10/25 11:37:47;;;;;;;;;;;;;;;13.42;100.00;98082.59;7389568;19;20246;-49
2022/10/25 11:40:22;;;;;;;;;;;;;;;13.35;100.00;98083.09;7390959;19;20261;-50
2022/10/25 11:43:03;;;;;;;;;;;;;;;13.76;100.00;98080.91;7388551;19;19936;-49
2022/10/25 11:45:45;;;;;;;;;;;;;;;13.74;100.00;98080.19;7390549;19;20306;-51
2022/10/25 11:48:38;;;;;;;;;;;;;;;13.65;100.00;98075.56;7389509;19;19982;-48
2022/10/25 11:51:15;;;;;;;;;;;;;;;13.63;100.00;98078.34;7387027;19;19919;-56
2022/10/25 11:53:59;;;;;;;;;;;;;;;13.22;100.00;98069.13;7390656;19;19911;-50
2022/10/25 11:56:36;;;;;;;;;;;;;;;13.48;100.00;98079.47;7386937;19;20370;-52
2022/10/25 11:59:17;;;;;;;;;;;;;;;13.96;100.00;98077.63;7386854;19;20315;-50
2022/10/25 12:02:06;;;;;;;;;;;;;;;13.75;100.00;98073.94;7390265;19;19974;-58
2022/10/25 12:04:52;;;;;;;;;;;;;;;14.34;100.00;98081.66;7389789;19;19910;-54
2022/10/25 12:07:28;;;;;;;;;;;;;;;13.98;100.00;98084.47;7385352;19;19910;-54
2022/10/25 12:10:08;;;;;;;;;;;;;;;13.89;100.00;98073.75;7386778;19;19918;-55
2022/10/25 12:12:47;;;;;;;;;;;;;;;13.78;100.00;98076.38;7384768;19;19919;-48
2022/10/25 12:15:24;;;;;;;;;;;;;;;13.52;100.00;98080.94;7390054;19;19923;-49
2022/10/25 12:17:58;;;;;;;;;;;;;;;13.64;100.00;98080.03;7385930;19;19971;-58
2022/10/25 12:20:35;;;;;;;;;;;;;;;13.80;100.00;98079.72;7385454;19;19919;-47
2022/10/25 12:23:10;;;;;;;;;;;;;;;13.95;100.00;98078.56;7390329;19;19915;-50
2022/10/25 12:25:46;;;;;;;;;;;;;;;14.16;100.00;98069.84;7385736;19;19949;-49
2022/10/25 12:28:25;;;;;;;;;;;;;;;14.40;100.00;98069.75;7388961;19;19922;-50
2022/10/25 12:30:59;;;;;;;;;;;;;;;14.39;100.00;98068.91;7383530;19;19931;-50
2022/10/25 12:33:36;;;;;;;;;;;;;;;14.23;100.00;98067.56;7387564;19;20348;-48
2022/10/25 12:36:15;;;;;;;;;;;;;;;14.24;100.00;98075.38;7383463;19;19919;-59
2022/10/25 12:38:48;;;;;;;;;;;;;;;14.45;100.00;98078.22;7387937;19;19915;-48
2022/10/25 12:41:23;;;;;;;;;;;;;;;14.24;100.00;98074.53;7390817;19;20000;-51
2022/10/25 12:44:01;;;;;;;;;;;;;;;14.40;100.00;98077.69;7389697;19;19935;-48
2022/10/25 12:46:45;;;;;;;;;;;;;;;13.89;100.00;98071.94;7387491;19;19915;-48
2022/10/25 12:49:36;;;;;;;;;;;;;;;14.15;100.00;98081.38;7387246;19;19936;-49
2022/10/25 12:52:24;;;;;;;;;;;;;;;14.12;100.00;98071.06;7381939;19;19919;-58
2022/10/25 12:55:17;;;;;;;;;;;;;;;14.12;100.00;98068.41;7385625;19;19919;-51
2022/10/25 12:57:58;;;;;;;;;;;;;;;14.56;100.00;98076.44;7384049;19;19931;-50
2022/10/25 13:00:31;;;;;;;;;;;;;;;14.20;100.00;98073.94;7383472;19;19917;-50
2022/10/25 13:03:32;;;;;;;;;;;;;;;14.04;100.00;98062.84;7382068;19;20188;-49
2022/10/25 13:06:21;;;;;;;;;;;;;;;13.53;100.00;98072.06;7380079;19;19917;-50
2022/10/25 13:08:57;;;;;;;;;;;;;;;13.13;100.00;98075.06;7384795;19;19911;-48
2022/10/25 13:11:38;;;;;;;;;;;;;;;12.96;100.00;98073.63;7378178;19;19943;-49
2022/10/25 13:14:28;;;;;;;;;;;;;;;13.00;100.00;98083.00;7384909;19;20347;-53
2022/10/25 13:17:15;;;;;;;;;;;;;;;12.97;100.00;98082.41;7380620;19;19960;-55
2022/10/25 13:19:49;;;;;;;;;;;;;;;12.66;100.00;98078.47;7382452;19;20290;-52
2022/10/25 13:22:42;;;;;;;;;;;;;;;12.48;100.00;98086.81;7384615;19;19915;-48
2022/10/25 13:25:44;;;;;;;;;;;;;;;12.36;100.00;98096.44;7382682;19;19907;-53
2022/10/25 13:28:24;;;;;;;;;;;;;;;12.33;100.00;98104.53;7383746;19;19911;-49